Time;durP1;ratioP1;P1;durP2;ratioP2;P2;SDS_P1;SDS_P2;PMS_P1;PMS_P2;Temp;Humidity;BMP_temperature;BMP_pressure;BME280_temperature;BME280_humidity;BME280_pressure;Samples;Min_cycle;Max_cycle;Signal;HPM_P1;HPM_P2
2022/11/20 00:00:51;;;;;;;28.08;15.55;;;-2.20;99.90;;;;;;5049117;28;20041;-53
2022/11/20 00:03:17;;;;;;;32.33;16.25;;;-2.10;99.90;;;;;;5048859;28;20138;-51
2022/11/20 00:05:43;;;;;;;30.23;17.63;;;-2.10;99.90;;;;;;5048988;28;20136;-52
2022/11/20 00:08:08;;;;;;;33.47;17.65;;;-2.10;99.90;;;;;;5049935;28;20083;-54
2022/11/20 00:10:36;;;;;;;30.65;16.67;;;-2.00;99.90;;;;;;5049718;28;20135;-52
2022/11/20 00:13:02;;;;;;;34.90;17.05;;;-2.10;99.90;;;;;;5049569;28;20473;-53
2022/11/20 00:15:28;;;;;;;30.88;16.85;;;-2.10;99.90;;;;;;5048453;28;20052;-54
2022/11/20 00:17:54;;;;;;;29.25;16.05;;;-2.00;99.90;;;;;;5049797;28;20155;-52
2022/11/20 00:20:20;;;;;;;28.27;17.08;;;-2.10;99.90;;;;;;5049616;28;20051;-52
2022/11/20 00:22:45;;;;;;;31.20;17.17;;;-2.10;99.90;;;;;;5049646;28;20355;-54
2022/11/20 00:25:11;;;;;;;30.13;17.45;;;-2.00;99.90;;;;;;5049627;28;20625;-53
2022/11/20 00:27:37;;;;;;;30.70;17.80;;;-2.00;99.90;;;;;;5064325;28;20044;-53
2022/11/20 00:30:04;;;;;;;34.90;18.00;;;-2.00;99.90;;;;;;5063940;28;20624;-54
2022/11/20 00:32:30;;;;;;;29.77;16.92;;;-1.90;99.90;;;;;;5049166;28;20127;-52
2022/11/20 00:34:55;;;;;;;30.40;15.60;;;-1.90;99.90;;;;;;5048170;28;20061;-53
2022/11/20 00:37:21;;;;;;;29.67;15.73;;;-1.80;99.90;;;;;;5048670;28;20047;-53
2022/11/20 00:39:47;;;;;;;29.75;15.40;;;-1.90;99.90;;;;;;5049053;28;20094;-53
2022/11/20 00:42:12;;;;;;;33.20;17.52;;;-1.80;99.90;;;;;;5063877;28;20040;-54
2022/11/20 00:44:38;;;;;;;33.15;16.60;;;-1.80;99.90;;;;;;5049034;28;20048;-52
2022/11/20 00:47:04;;;;;;;31.55;17.10;;;-1.80;99.90;;;;;;5048577;28;20437;-53
2022/11/20 00:49:29;;;;;;;28.17;16.30;;;-1.80;99.90;;;;;;5048493;28;20029;-53
2022/11/20 00:51:55;;;;;;;26.83;16.02;;;-1.80;99.90;;;;;;5047833;28;20049;-53
2022/11/20 00:54:21;;;;;;;30.08;16.52;;;-1.80;99.90;;;;;;5047638;28;20439;-56
2022/11/20 00:56:46;;;;;;;30.33;15.65;;;-1.80;99.90;;;;;;5048487;28;20041;-54
2022/11/20 00:59:12;;;;;;;29.75;15.27;;;-1.80;99.90;;;;;;5047530;28;20084;-55
2022/11/20 01:01:38;;;;;;;33.63;17.73;;;-1.70;99.90;;;;;;5048205;28;20124;-52
2022/11/20 01:04:04;;;;;;;31.10;15.85;;;-1.70;99.90;;;;;;5048204;28;20084;-54
2022/11/20 01:06:36;;;;;;;30.77;16.20;;;-1.70;99.90;;;;;;5048625;28;20390;-54
2022/11/20 01:09:13;;;;;;;27.08;14.18;;;-1.70;99.90;;;;;;5048345;28;20132;-54
2022/11/20 01:11:41;;;;;;;30.02;15.90;;;-1.70;99.90;;;;;;5047107;28;20116;-54
2022/11/20 01:14:11;;;;;;;29.15;16.05;;;-1.70;99.90;;;;;;5047900;28;20041;-53
2022/11/20 01:16:42;;;;;;;31.10;15.77;;;-1.70;99.90;;;;;;5048118;28;20140;-54
2022/11/20 01:19:12;;;;;;;29.05;15.70;;;-1.60;99.90;;;;;;5048461;28;20045;-54
2022/11/20 01:21:40;;;;;;;28.55;15.25;;;-1.70;99.90;;;;;;5048327;28;20156;-54
2022/11/20 01:24:07;;;;;;;29.70;15.15;;;-1.60;99.90;;;;;;5048095;28;20060;-54
2022/11/20 01:26:36;;;;;;;27.90;14.23;;;-1.60;99.90;;;;;;5063736;28;20091;-53
2022/11/20 01:29:03;;;;;;;30.00;15.77;;;-1.60;99.90;;;;;;5063089;28;20077;-54
2022/11/20 01:31:31;;;;;;;28.23;15.52;;;-1.60;99.90;;;;;;5062991;28;20044;-54
2022/11/20 01:33:59;;;;;;;29.23;15.82;;;-1.60;99.90;;;;;;5062803;28;20081;-54
2022/11/20 01:36:28;;;;;;;31.98;15.98;;;-1.60;99.90;;;;;;5047687;28;20047;-55
2022/11/20 01:39:02;;;;;;;31.13;16.08;;;-1.60;99.90;;;;;;5047957;28;20372;-54
2022/11/20 01:44:21;;;;;;;31.73;14.65;;;-1.60;99.90;;;;;;5047741;28;20627;-54
2022/11/20 01:46:59;;;;;;;30.35;14.38;;;-1.60;99.90;;;;;;5048235;28;20120;-55
2022/11/20 01:49:49;;;;;;;29.25;14.35;;;-1.50;99.90;;;;;;5046327;28;20049;-55
2022/11/20 01:52:29;;;;;;;31.23;15.50;;;-1.60;99.90;;;;;;5048069;28;20364;-55
2022/11/20 01:55:01;;;;;;;30.05;14.90;;;-1.60;99.90;;;;;;5047747;28;20041;-55
2022/11/20 01:57:29;;;;;;;29.65;14.90;;;-1.60;99.90;;;;;;5047905;28;20095;-55
2022/11/20 02:00:01;;;;;;;27.73;15.10;;;-1.50;99.90;;;;;;5048026;28;20080;-54
2022/11/20 02:02:27;;;;;;;30.50;14.98;;;-1.30;99.90;;;;;;5062819;28;20052;-54
2022/11/20 02:04:56;;;;;;;31.08;15.82;;;-1.50;99.90;;;;;;5062234;28;20061;-54
2022/11/20 02:07:23;;;;;;;26.65;13.68;;;-1.50;99.90;;;;;;5047409;28;20534;-55
2022/11/20 02:09:50;;;;;;;28.30;15.20;;;-1.50;99.90;;;;;;5047293;28;20048;-54
2022/11/20 02:15:00;;;;;;;29.38;15.70;;;-1.50;99.90;;;;;;5047215;28;20055;-54
2022/11/20 02:17:26;;;;;;;31.90;15.82;;;-1.50;99.90;;;;;;5046979;28;20040;-54
2022/11/20 02:19:52;;;;;;;31.08;15.85;;;-1.50;99.90;;;;;;5047060;28;20045;-54
2022/11/20 02:23:12;;;;;;;32.72;16.25;;;-1.50;99.90;;;;;;5062268;28;20128;-55
2022/11/20 02:25:40;;;;;;;30.25;16.33;;;-1.40;99.90;;;;;;5023746;28;20131;-54
2022/11/20 02:28:06;;;;;;;29.27;14.88;;;-1.40;99.90;;;;;;5047345;28;20102;-54
2022/11/20 02:30:32;;;;;;;29.27;15.20;;;-1.40;99.90;;;;;;5047435;28;20041;-54
2022/11/20 02:32:58;;;;;;;31.08;15.10;;;-1.40;99.90;;;;;;5062328;28;20045;-55
2022/11/20 02:35:23;;;;;;;35.03;16.35;;;-1.40;99.90;;;;;;5046673;28;20036;-54
2022/11/20 02:37:53;;;;;;;28.90;15.07;;;-1.40;99.90;;;;;;5047238;28;20049;-54
2022/11/20 02:40:19;;;;;;;31.80;15.80;;;-1.50;99.90;;;;;;5062261;28;20148;-55
2022/11/20 02:42:45;;;;;;;29.42;14.90;;;-1.40;99.90;;;;;;5047114;28;20712;-55
2022/11/20 02:45:11;;;;;;;29.73;15.70;;;-1.30;99.90;;;;;;5046544;28;20049;-54
2022/11/20 02:47:37;;;;;;;29.27;14.80;;;-1.30;99.90;;;;;;5061922;28;20537;-55
2022/11/20 02:50:04;;;;;;;30.33;15.73;;;-1.40;99.90;;;;;;5046498;28;20045;-55
2022/11/20 02:52:30;;;;;;;31.10;15.90;;;-1.30;99.90;;;;;;5061489;28;20070;-53
2022/11/20 02:54:55;;;;;;;32.30;16.10;;;-1.30;99.90;;;;;;5047112;28;20048;-55
2022/11/20 02:57:21;;;;;;;35.15;17.80;;;-1.30;99.90;;;;;;5046982;28;20649;-54
2022/11/20 02:59:47;;;;;;;36.75;18.85;;;-1.30;99.90;;;;;;5062247;28;20205;-54
2022/11/20 03:02:12;;;;;;;30.75;15.90;;;-1.30;99.90;;;;;;5046677;28;20106;-54
2022/11/20 03:04:38;;;;;;;31.58;16.63;;;-1.30;99.90;;;;;;5046178;28;20069;-54
2022/11/20 03:07:05;;;;;;;35.92;17.70;;;-1.30;99.90;;;;;;5061816;28;20052;-54
2022/11/20 03:09:30;;;;;;;32.67;16.17;;;-0.70;99.90;;;;;;5028080;28;20052;-54
2022/11/20 03:11:56;;;;;;;33.70;17.75;;;-1.30;99.90;;;;;;5046342;28;20043;-54
2022/11/20 03:14:22;;;;;;;35.38;17.80;;;-1.30;99.90;;;;;;5028139;28;20056;-55
2022/11/20 03:16:47;;;;;;;35.60;18.52;;;-1.30;99.90;;;;;;5046257;28;20778;-54
2022/11/20 03:19:13;;;;;;;34.13;18.27;;;-1.30;99.90;;;;;;5045514;28;20041;-54
2022/11/20 03:21:39;;;;;;;32.60;17.83;;;-1.30;99.90;;;;;;5046095;28;20045;-55
2022/11/20 03:24:05;;;;;;;36.05;17.80;;;-1.30;99.90;;;;;;5045167;28;20131;-54
2022/11/20 03:26:31;;;;;;;34.40;18.33;;;-1.20;99.90;;;;;;5060968;28;20128;-54
2022/11/20 03:29:02;;;;;;;33.55;17.88;;;-1.30;99.90;;;;;;5061095;28;20131;-54
2022/11/20 03:31:30;;;;;;;31.10;16.92;;;-1.20;99.90;;;;;;5045682;28;20507;-55
2022/11/20 03:33:57;;;;;;;37.45;18.08;;;-1.20;99.90;;;;;;5046191;28;20045;-53
2022/11/20 03:36:26;;;;;;;37.47;20.25;;;-1.30;99.90;;;;;;5061343;28;20041;-54
2022/11/20 03:38:53;;;;;;;35.53;18.30;;;-1.20;99.90;;;;;;5046092;28;20132;-54
2022/11/20 03:41:24;;;;;;;30.63;18.00;;;-1.20;99.90;;;;;;5046056;28;20045;-55
2022/11/20 03:43:56;;;;;;;37.17;19.10;;;-1.20;99.90;;;;;;5060784;28;20080;-54
2022/11/20 03:46:22;;;;;;;29.92;16.92;;;-1.20;99.90;;;;;;5045765;28;20128;-55
2022/11/20 03:48:49;;;;;;;31.98;18.10;;;-2.50;99.90;;;;;;5060914;28;20132;-55
2022/11/20 03:51:16;;;;;;;34.97;18.48;;;-1.20;99.90;;;;;;5046072;28;20041;-55
2022/11/20 03:53:43;;;;;;;34.65;18.50;;;-1.20;99.90;;;;;;5045506;28;20564;-55
2022/11/20 03:56:10;;;;;;;32.05;18.15;;;-1.10;99.90;;;;;;5045832;28;20115;-55
2022/11/20 03:58:39;;;;;;;32.72;18.80;;;-1.20;99.90;;;;;;5045236;28;20045;-54
2022/11/20 04:01:26;;;;;;;34.05;18.48;;;-1.20;99.90;;;;;;5045440;28;20037;-53
2022/11/20 04:03:54;;;;;;;34.85;18.13;;;-1.10;99.90;;;;;;5044087;28;20055;-53
2022/11/20 04:06:28;;;;;;;34.22;17.77;;;-1.10;99.90;;;;;;5045694;28;20056;-54
2022/11/20 04:08:56;;;;;;;30.10;17.58;;;-1.10;99.90;;;;;;5045666;28;20048;-54
2022/11/20 04:11:22;;;;;;;32.60;19.08;;;-1.10;99.90;;;;;;5060999;28;20052;-55
2022/11/20 04:13:51;;;;;;;34.70;18.08;;;-1.10;99.90;;;;;;5045144;28;20053;-54
2022/11/20 04:16:17;;;;;;;34.03;18.77;;;-1.10;99.90;;;;;;5045091;28;20045;-55
2022/11/20 04:18:43;;;;;;;33.40;18.95;;;-1.10;99.90;;;;;;5045215;28;20530;-55
2022/11/20 04:21:09;;;;;;;35.70;19.65;;;-1.10;99.90;;;;;;5045099;28;20552;-55
2022/11/20 04:23:35;;;;;;;34.78;18.75;;;-1.10;99.90;;;;;;5044771;28;20056;-55
2022/11/20 04:26:09;;;;;;;37.70;18.92;;;-1.10;99.90;;;;;;5045087;28;20052;-54
2022/11/20 04:28:35;;;;;;;33.28;17.83;;;-1.00;99.90;;;;;;5045250;28;20122;-54
2022/11/20 04:31:10;;;;;;;35.75;18.77;;;-1.10;99.90;;;;;;5045564;28;20134;-54
2022/11/20 04:33:37;;;;;;;31.58;17.95;;;-1.10;99.90;;;;;;5045311;28;20073;-55
2022/11/20 04:36:07;;;;;;;35.50;18.65;;;-1.10;99.90;;;;;;5047808;28;20041;-53
2022/11/20 04:38:33;;;;;;;31.55;17.30;;;-1.10;99.90;;;;;;5049111;28;20077;-54
2022/11/20 04:41:06;;;;;;;36.80;18.42;;;-1.20;99.90;;;;;;5064145;28;20116;-55
2022/11/20 04:43:33;;;;;;;33.70;18.05;;;-1.10;99.90;;;;;;5048955;28;20382;-54
2022/11/20 04:46:00;;;;;;;32.53;18.20;;;-1.10;99.90;;;;;;5064154;28;20052;-55
2022/11/20 04:48:27;;;;;;;29.73;17.52;;;-1.10;99.90;;;;;;5064196;28;20486;-55
2022/11/20 04:50:53;;;;;;;38.78;19.48;;;-1.10;99.90;;;;;;5064314;28;20056;-54
2022/11/20 04:53:19;;;;;;;33.70;17.65;;;-1.10;99.90;;;;;;5049121;28;20405;-55
2022/11/20 04:55:45;;;;;;;30.95;17.05;;;-1.10;99.90;;;;;;5064630;28;20051;-55
2022/11/20 04:58:11;;;;;;;25.25;15.55;;;-1.10;99.90;;;;;;5049307;28;20068;-54
2022/11/20 05:00:37;;;;;;;38.13;18.45;;;-1.10;99.90;;;;;;5048646;28;20037;-55
2022/11/20 05:03:03;;;;;;;28.73;16.55;;;-1.20;99.90;;;;;;5047486;28;20807;-54
2022/11/20 05:05:29;;;;;;;30.33;16.92;;;-1.10;99.90;;;;;;5047205;28;20490;-54
2022/11/20 05:07:58;;;;;;;34.70;18.48;;;-1.00;99.90;;;;;;5048825;28;20754;-54
2022/11/20 05:10:25;;;;;;;31.98;16.17;;;-1.00;99.90;;;;;;5048473;28;20103;-54
2022/11/20 05:12:50;;;;;;;31.63;17.48;;;-1.00;99.90;;;;;;5048798;28;20056;-54
2022/11/20 05:15:16;;;;;;;30.67;17.40;;;-1.00;99.90;;;;;;5063850;28;20044;-55
2022/11/20 05:17:47;;;;;;;31.30;16.30;;;-1.00;99.90;;;;;;5046958;28;20033;-54
2022/11/20 05:20:13;;;;;;;29.95;16.65;;;-1.00;99.90;;;;;;5048898;28;20704;-55
2022/11/20 05:22:38;;;;;;;30.98;16.65;;;-1.00;99.90;;;;;;5048662;28;20045;-55
2022/11/20 05:25:05;;;;;;;25.52;15.73;;;-1.10;99.90;;;;;;5048624;28;20045;-54
2022/11/20 05:27:30;;;;;;;29.17;17.20;;;-0.90;99.90;;;;;;5048476;28;20049;-54
2022/11/20 05:29:56;;;;;;;33.70;16.88;;;-1.00;99.90;;;;;;5048255;28;20048;-54
2022/11/20 05:32:25;;;;;;;32.80;16.20;;;-1.00;99.90;;;;;;5048686;28;20036;-54
2022/11/20 05:34:51;;;;;;;33.83;17.77;;;-1.00;99.90;;;;;;5048286;28;20049;-55
2022/11/20 05:37:17;;;;;;;28.67;16.00;;;-1.00;99.90;;;;;;5048643;28;20091;-54
2022/11/20 05:39:42;;;;;;;25.20;16.25;;;-1.00;99.90;;;;;;5063334;28;20148;-55
2022/11/20 05:44:52;;;;;;;27.65;15.63;;;-1.00;99.90;;;;;;5046661;28;20084;-53
2022/11/20 05:47:18;;;;;;;27.40;15.52;;;-1.00;99.90;;;;;;5046890;28;20076;-55
2022/11/20 05:49:44;;;;;;;30.42;16.60;;;-1.00;99.90;;;;;;5047589;28;20048;-55
2022/11/20 05:52:09;;;;;;;30.35;16.83;;;-1.00;99.90;;;;;;5063196;28;20060;-55
2022/11/20 05:54:35;;;;;;;25.75;15.38;;;-1.00;99.90;;;;;;5047565;28;20049;-53
2022/11/20 05:57:01;;;;;;;25.95;15.18;;;-1.00;99.90;;;;;;5046221;28;20101;-55
2022/11/20 05:59:26;;;;;;;24.08;14.63;;;-1.10;99.90;;;;;;5062686;28;20036;-54
2022/11/20 06:01:52;;;;;;;25.65;15.13;;;-1.00;99.90;;;;;;5047936;28;20045;-54
2022/11/20 06:04:18;;;;;;;28.60;16.40;;;-1.00;99.90;;;;;;5047682;28;20049;-54
2022/11/20 06:06:43;;;;;;;28.95;15.35;;;-1.00;99.90;;;;;;5047597;28;20053;-55
2022/11/20 06:09:09;;;;;;;28.25;15.43;;;-1.00;99.90;;;;;;5048009;28;20044;-55
2022/11/20 06:11:34;;;;;;;27.70;15.48;;;-1.00;99.90;;;;;;5047442;28;20673;-55
2022/11/20 06:14:00;;;;;;;30.98;15.68;;;-1.00;99.90;;;;;;5047584;28;20045;-55
2022/11/20 06:16:26;;;;;;;27.00;15.60;;;-1.00;99.90;;;;;;5047657;28;20036;-55
2022/11/20 06:18:51;;;;;;;28.13;15.35;;;-1.00;99.90;;;;;;5062576;28;20772;-55
2022/11/20 06:21:19;;;;;;;25.63;15.35;;;-1.00;99.90;;;;;;5047582;28;20390;-54
2022/11/20 06:23:46;;;;;;;24.35;14.18;;;-1.00;99.90;;;;;;5047443;28;20045;-55
2022/11/20 06:26:23;;;;;;;25.83;14.73;;;-1.00;99.90;;;;;;5047933;28;20040;-54
2022/11/20 06:28:49;;;;;;;27.17;15.25;;;-0.90;99.90;;;;;;5047315;28;20049;-54
2022/11/20 06:31:17;;;;;;;28.00;15.43;;;-1.00;99.90;;;;;;5047484;28;20041;-54
2022/11/20 06:33:43;;;;;;;28.92;15.95;;;-1.00;99.90;;;;;;5047351;28;20049;-55
2022/11/20 06:36:11;;;;;;;30.38;15.77;;;-1.00;99.90;;;;;;5047224;28;20114;-54
2022/11/20 06:38:38;;;;;;;23.67;14.63;;;-1.00;99.90;;;;;;5045969;28;20043;-55
2022/11/20 06:41:05;;;;;;;24.20;15.18;;;-1.00;99.90;;;;;;5046116;28;20573;-54
2022/11/20 06:43:31;;;;;;;27.58;14.80;;;-0.90;99.90;;;;;;5046381;28;20103;-55
2022/11/20 06:45:58;;;;;;;26.15;14.35;;;-1.00;99.90;;;;;;5046588;28;20040;-54
2022/11/20 06:48:28;;;;;;;24.35;13.68;;;-1.00;99.90;;;;;;5046426;28;20045;-55
2022/11/20 06:50:54;;;;;;;24.58;14.43;;;-1.00;99.90;;;;;;5045843;28;20083;-55
2022/11/20 06:53:21;;;;;;;22.55;13.10;;;-1.00;99.90;;;;;;5061239;28;20053;-55
2022/11/20 06:55:47;;;;;;;23.85;13.88;;;-1.00;99.90;;;;;;5046299;28;20455;-55
2022/11/20 06:58:15;;;;;;;24.10;13.45;;;-0.90;99.90;;;;;;5061354;28;20099;-54
2022/11/20 07:00:40;;;;;;;24.15;13.80;;;-1.00;99.90;;;;;;5045441;28;20153;-54
2022/11/20 07:03:08;;;;;;;23.40;12.88;;;-1.00;99.90;;;;;;5045152;28;20044;-54
2022/11/20 07:05:35;;;;;;;20.90;12.23;;;-0.90;99.90;;;;;;5045757;28;20468;-54
2022/11/20 07:08:01;;;;;;;24.92;12.95;;;-0.90;99.90;;;;;;5045911;28;20057;-55
2022/11/20 07:10:27;;;;;;;21.73;12.82;;;-0.90;99.90;;;;;;5045038;28;20076;-55
2022/11/20 07:12:53;;;;;;;20.52;13.07;;;-0.90;99.90;;;;;;5046264;28;20076;-55
2022/11/20 07:15:21;;;;;;;19.20;12.30;;;-0.90;99.90;;;;;;5061314;28;20502;-55
2022/11/20 07:17:47;;;;;;;21.05;12.50;;;-1.00;99.90;;;;;;5045622;28;20518;-55
2022/11/20 07:20:13;;;;;;;24.92;14.10;;;-0.90;99.90;;;;;;5045892;28;20041;-55
2022/11/20 07:22:39;;;;;;;23.73;14.57;;;-0.90;99.90;;;;;;5045453;28;20048;-55
2022/11/20 07:25:05;;;;;;;24.70;13.77;;;-0.90;99.90;;;;;;5045716;28;20130;-54
2022/11/20 07:27:31;;;;;;;26.83;14.88;;;-0.90;99.90;;;;;;5045755;28;20055;-54
2022/11/20 07:29:57;;;;;;;23.73;14.88;;;-0.90;99.90;;;;;;5045808;28;20063;-54
2022/11/20 07:32:23;;;;;;;21.05;13.00;;;-0.80;99.90;;;;;;5045847;28;20044;-55
2022/11/20 07:34:48;;;;;;;20.83;13.25;;;-0.80;99.90;;;;;;5045574;28;20078;-54
2022/11/20 07:37:15;;;;;;;24.20;14.13;;;-0.80;99.90;;;;;;5027947;28;20065;-54
2022/11/20 07:39:41;;;;;;;26.52;15.07;;;-0.80;99.90;;;;;;5045709;28;20478;-55
2022/11/20 07:42:07;;;;;;;22.95;13.13;;;-0.80;99.90;;;;;;5046444;28;20048;-55
2022/11/20 07:44:33;;;;;;;23.08;14.32;;;-0.80;99.90;;;;;;5046227;28;20498;-55
2022/11/20 07:46:59;;;;;;;25.35;15.48;;;-0.70;99.90;;;;;;5044539;28;20049;-55
2022/11/20 07:49:25;;;;;;;23.40;14.98;;;-0.70;99.90;;;;;;5046096;28;20048;-55
2022/11/20 07:51:53;;;;;;;27.00;14.25;;;-0.70;99.90;;;;;;5045346;28;20045;-55
2022/11/20 07:54:20;;;;;;;27.58;16.02;;;-0.70;99.90;;;;;;5045767;28;20156;-55
2022/11/20 07:56:46;;;;;;;23.88;14.32;;;-0.60;99.90;;;;;;5045057;28;20041;-55
2022/11/20 07:59:11;;;;;;;24.88;14.30;;;-0.60;99.90;;;;;;5045832;28;20041;-55
2022/11/20 08:01:38;;;;;;;24.27;14.07;;;-0.50;99.90;;;;;;5045879;28;20482;-54
2022/11/20 08:04:04;;;;;;;24.40;14.88;;;-0.50;99.90;;;;;;5045466;28;20182;-54
2022/11/20 08:06:30;;;;;;;26.10;15.45;;;-0.50;99.90;;;;;;5045813;28;20120;-55
2022/11/20 08:08:55;;;;;;;21.52;14.00;;;-0.50;99.90;;;;;;5045705;28;20080;-55
2022/11/20 08:14:11;;;;;;;21.58;12.80;;;-0.50;99.90;;;;;;5049549;28;20052;-55
2022/11/20 08:16:45;;;;;;;21.73;13.65;;;-0.40;99.90;;;;;;5064602;28;20375;-55
2022/11/20 08:19:11;;;;;;;27.08;13.90;;;-0.40;99.90;;;;;;5050138;28;20045;-55
2022/11/20 08:21:37;;;;;;;24.90;13.60;;;-0.30;99.90;;;;;;5049915;28;20527;-55
2022/11/20 08:24:03;;;;;;;22.02;13.55;;;-0.30;99.90;;;;;;5049777;28;20049;-55
2022/11/20 08:26:29;;;;;;;23.88;14.35;;;-0.20;99.90;;;;;;5049751;28;20045;-54
2022/11/20 08:28:56;;;;;;;22.35;13.60;;;-0.20;99.90;;;;;;5064830;28;20109;-55
2022/11/20 08:31:24;;;;;;;21.35;12.85;;;-0.20;99.90;;;;;;5050144;28;20037;-55
2022/11/20 08:33:50;;;;;;;21.02;13.38;;;-0.20;99.90;;;;;;5065023;28;20530;-55
2022/11/20 08:36:16;;;;;;;21.58;13.00;;;-0.10;99.90;;;;;;5049515;28;20041;-55
2022/11/20 08:38:41;;;;;;;21.13;13.18;;;-0.10;99.90;;;;;;5048976;28;20033;-55
2022/11/20 08:41:26;;;;;;;21.98;12.48;;;-0.10;99.90;;;;;;5064010;28;20646;-55
2022/11/20 08:44:00;;;;;;;20.90;13.20;;;-0.10;99.90;;;;;;5064022;28;20431;-55
2022/11/20 08:46:30;;;;;;;20.13;13.05;;;-0.10;99.90;;;;;;5049115;28;20115;-55
2022/11/20 08:48:56;;;;;;;20.83;13.02;;;-0.10;99.90;;;;;;5048932;28;20044;-55
2022/11/20 08:51:21;;;;;;;19.77;11.60;;;-0.10;99.90;;;;;;5048954;28;20260;-55
2022/11/20 08:53:48;;;;;;;21.45;12.35;;;-0.10;99.90;;;;;;5049081;28;20041;-55
2022/11/20 08:56:14;;;;;;;18.60;11.70;;;-0.10;99.90;;;;;;5049280;28;20045;-55
2022/11/20 08:58:40;;;;;;;19.27;11.45;;;-0.10;99.90;;;;;;5048726;28;20056;-55
2022/11/20 09:01:06;;;;;;;18.80;11.68;;;-0.10;99.90;;;;;;5063806;28;20131;-54
2022/11/20 09:03:32;;;;;;;18.98;11.48;;;-0.10;99.90;;;;;;5048504;28;20139;-54
2022/11/20 09:06:03;;;;;;;19.90;11.05;;;0.00;99.90;;;;;;5048155;28;20060;-55
2022/11/20 09:08:30;;;;;;;15.80;10.98;;;0.00;99.90;;;;;;5048378;28;20056;-55
2022/11/20 09:10:57;;;;;;;15.93;10.18;;;0.00;99.90;;;;;;5048652;28;20067;-54
2022/11/20 09:13:24;;;;;;;15.38;9.55;;;0.00;99.90;;;;;;5048460;28;20493;-55
2022/11/20 09:16:02;;;;;;;14.15;9.70;;;0.00;99.90;;;;;;5063478;28;20056;-55
2022/11/20 09:18:31;;;;;;;15.55;9.73;;;0.00;99.90;;;;;;5048022;28;20041;-55
2022/11/20 09:20:58;;;;;;;15.73;10.90;;;0.00;99.90;;;;;;5047011;28;20048;-55
2022/11/20 09:23:24;;;;;;;15.95;10.20;;;0.10;99.90;;;;;;5048223;28;20040;-55
2022/11/20 09:25:50;;;;;;;17.05;9.88;;;0.10;99.90;;;;;;5063425;28;20040;-55
2022/11/20 09:28:18;;;;;;;15.25;9.88;;;0.10;99.90;;;;;;5038414;28;20509;-57
2022/11/20 09:30:44;;;;;;;14.70;10.30;;;1.10;99.90;;;;;;5019515;28;20049;-54
2022/11/20 09:33:10;;;;;;;15.25;9.50;;;0.10;99.90;;;;;;5024808;28;20115;-54
2022/11/20 09:35:35;;;;;;;14.52;9.48;;;0.10;99.90;;;;;;5025132;28;20054;-55
2022/11/20 09:38:06;;;;;;;14.07;8.70;;;0.20;99.90;;;;;;5024689;28;20045;-55
2022/11/20 09:40:34;;;;;;;16.38;9.82;;;0.20;99.90;;;;;;5024586;28;20553;-54
2022/11/20 09:43:53;;;;;;;19.40;10.27;;;0.20;99.90;;;;;;5006940;28;20042;-55
2022/11/20 09:46:40;;;;;;;14.35;9.23;;;0.30;99.90;;;;;;5001712;28;20053;-53
2022/11/20 09:49:53;;;;;;;13.13;9.18;;;0.40;99.90;;;;;;5002390;28;20045;-55
2022/11/20 09:52:26;;;;;;;12.63;8.13;;;0.40;99.90;;;;;;5020337;28;20053;-55
2022/11/20 09:54:52;;;;;;;12.40;7.95;;;1.40;99.90;;;;;;5024912;28;20046;-55
2022/11/20 09:57:23;;;;;;;15.60;9.15;;;0.60;99.90;;;;;;5024351;28;20053;-55
2022/11/20 09:59:55;;;;;;;12.07;7.93;;;0.60;99.90;;;;;;5023400;28;20053;-54
2022/11/20 10:02:24;;;;;;;11.65;8.25;;;0.70;99.90;;;;;;5024818;28;20041;-54
2022/11/20 10:05:08;;;;;;;14.35;8.05;;;0.80;99.90;;;;;;5024622;28;20592;-55
2022/11/20 10:07:43;;;;;;;11.88;8.43;;;0.80;99.90;;;;;;5024219;28;20053;-56
2022/11/20 10:10:34;;;;;;;13.00;8.60;;;0.90;99.90;;;;;;5024412;28;20049;-56
2022/11/20 10:13:25;;;;;;;12.27;8.60;;;1.00;99.90;;;;;;5024010;28;20815;-56
2022/11/20 10:16:00;;;;;;;14.35;8.63;;;1.00;99.90;;;;;;5023090;28;20045;-56
2022/11/20 10:18:46;;;;;;;12.98;7.90;;;1.00;99.90;;;;;;5021401;28;20049;-56
2022/11/20 10:21:26;;;;;;;15.02;8.25;;;1.00;99.90;;;;;;5018553;28;20132;-56
2022/11/20 10:23:55;;;;;;;10.23;7.25;;;1.10;99.90;;;;;;5017881;28;20067;-50
2022/11/20 10:26:53;;;;;;;10.40;7.28;;;1.20;99.90;;;;;;5021610;28;20045;-50
2022/11/20 10:29:28;;;;;;;10.93;7.53;;;1.30;99.90;;;;;;5011293;28;20062;-46
2022/11/20 10:32:02;;;;;;;11.25;8.02;;;1.30;99.90;;;;;;5022097;28;20758;-49
2022/11/20 10:34:47;;;;;;;13.60;8.20;;;1.40;99.90;;;;;;5022369;28;20041;-46
2022/11/20 10:37:22;;;;;;;11.30;7.75;;;1.40;99.90;;;;;;5021035;28;20053;-45
2022/11/20 10:40:01;;;;;;;9.18;6.78;;;1.40;99.90;;;;;;5037883;28;20041;-55
2022/11/20 10:42:51;;;;;;;12.30;7.75;;;1.50;99.90;;;;;;5022760;28;20043;-54
2022/11/20 10:45:26;;;;;;;11.35;7.90;;;1.60;99.90;;;;;;5022566;28;20056;-53
2022/11/20 10:48:14;;;;;;;10.55;7.70;;;1.60;99.90;;;;;;5022633;28;20041;-51
2022/11/20 10:50:58;;;;;;;11.55;7.30;;;1.70;99.90;;;;;;5022404;28;20578;-58
2022/11/20 10:53:54;;;;;;;11.73;7.78;;;1.70;99.90;;;;;;5022177;28;20053;-55
2022/11/20 10:56:28;;;;;;;11.35;7.00;;;1.90;99.90;;;;;;5022327;28;20038;-55
2022/11/20 10:59:23;;;;;;;13.15;7.85;;;1.90;99.90;;;;;;5020442;28;20388;-56
2022/11/20 11:01:48;;;;;;;9.80;6.88;;;2.30;99.90;;;;;;5054277;28;20106;-54
2022/11/20 11:04:35;;;;;;;11.65;7.55;;;2.10;99.90;;;;;;5022065;28;20499;-56
2022/11/20 11:07:30;;;;;;;12.25;8.25;;;2.00;99.90;;;;;;5022047;28;20712;-57
2022/11/20 11:09:56;;;;;;;10.85;7.57;;;2.10;99.90;;;;;;5019389;28;20056;-58
2022/11/20 11:12:25;;;;;;;11.52;7.72;;;2.20;99.90;;;;;;5020456;28;20072;-54
2022/11/20 11:14:53;;;;;;;11.80;7.55;;;2.20;99.90;;;;;;5020419;28;20046;-56
2022/11/20 11:17:30;;;;;;;12.93;7.28;;;2.10;99.90;;;;;;5021848;28;20081;-54
2022/11/20 11:20:03;;;;;;;9.95;6.80;;;2.20;99.90;;;;;;5021207;28;20747;-56
2022/11/20 11:22:42;;;;;;;8.07;5.80;;;2.30;99.90;;;;;;5022067;28;20041;-57
2022/11/20 11:25:27;;;;;;;8.80;5.97;;;2.30;99.90;;;;;;5021820;28;20049;-55
2022/11/20 11:27:55;;;;;;;11.68;6.10;;;2.20;99.90;;;;;;5020561;28;20052;-55
2022/11/20 11:30:29;;;;;;;8.85;6.10;;;2.10;99.90;;;;;;5008509;28;20064;-56
2022/11/20 11:33:09;;;;;;;10.38;6.65;;;1.80;99.90;;;;;;5020708;28;20049;-48
2022/11/20 11:35:49;;;;;;;10.50;6.82;;;1.80;99.90;;;;;;5021532;28;20549;-54
2022/11/20 11:38:23;;;;;;;9.43;6.63;;;1.80;99.90;;;;;;5021895;28;20456;-56
2022/11/20 11:40:52;;;;;;;9.07;6.10;;;1.70;99.90;;;;;;5021858;28;20064;-55
2022/11/20 11:46:26;;;;;;;7.13;5.18;;;1.60;99.90;;;;;;5023155;28;20076;-51
2022/11/20 11:49:21;;;;;;;10.25;5.95;;;1.60;99.90;;;;;;5025916;28;20785;-65
2022/11/20 11:51:53;;;;;;;7.93;5.28;;;2.70;99.90;;;;;;4998836;28;20049;-48
2022/11/20 11:54:43;;;;;;;10.60;5.88;;;1.60;99.90;;;;;;5024418;28;20053;-63
2022/11/20 11:57:23;;;;;;;10.32;5.95;;;1.60;99.90;;;;;;5060138;28;20064;-62
2022/11/20 11:59:59;;;;;;;9.50;5.85;;;1.60;99.90;;;;;;5026376;28;20130;-62
2022/11/20 12:02:44;;;;;;;9.48;6.18;;;1.60;99.90;;;;;;5059346;28;20045;-62
2022/11/20 12:05:17;;;;;;;10.63;6.28;;;1.60;99.90;;;;;;5003082;28;20059;-56
2022/11/20 12:08:04;;;;;;;9.50;6.22;;;1.60;99.90;;;;;;5022032;28;20061;-57
2022/11/20 12:10:34;;;;;;;8.90;5.57;;;1.50;99.90;;;;;;5022703;28;20790;-57
2022/11/20 12:13:49;;;;;;;9.80;5.25;;;1.40;99.90;;;;;;5022072;28;20053;-56
2022/11/20 12:16:18;;;;;;;9.25;6.78;;;1.40;99.90;;;;;;5013858;28;20071;-46
2022/11/20 12:18:50;;;;;;;12.38;7.30;;;1.30;99.90;;;;;;5023684;28;20407;-55
2022/11/20 12:21:30;;;;;;;11.27;7.35;;;1.20;99.90;;;;;;5023508;28;20077;-48
2022/11/20 12:24:23;;;;;;;9.57;6.43;;;1.20;99.90;;;;;;5025285;28;20049;-52
2022/11/20 12:26:58;;;;;;;;;;;1.20;99.90;;;;;;5026122;28;20085;-52
2022/11/20 12:29:40;;;;;;;9.43;5.78;;;1.30;99.90;;;;;;5014139;28;19960;-50
2022/11/20 12:32:40;;;;;;;9.40;5.60;;;1.30;99.90;;;;;;5024713;28;20053;-48
2022/11/20 12:35:39;;;;;;;11.38;5.88;;;1.40;99.90;;;;;;5024725;28;20052;-48
2022/11/20 12:38:30;;;;;;;15.77;9.82;;;1.60;99.90;;;;;;5024955;28;20060;-50
2022/11/20 12:47:23;;;;;;;8.30;5.72;;;2.20;99.90;;;;;;5023565;28;20056;-50
2022/11/20 12:50:12;;;;;;;8.43;5.63;;;2.30;99.90;;;;;;5024013;28;20085;-52
2022/11/20 12:52:41;;;;;;;7.53;4.38;;;2.40;99.90;;;;;;5026686;28;20661;-61
2022/11/20 12:55:24;;;;;;;7.82;4.82;;;2.20;99.90;;;;;;5009916;28;20049;-60
2022/11/20 12:57:53;;;;;;;;;;;2.40;99.90;;;;;;5029014;28;20041;-60
2022/11/20 13:00:24;;;;;;;7.10;5.03;;;2.20;99.90;;;;;;5027906;28;20374;-60
2022/11/20 13:02:56;;;;;;;8.63;5.35;;;2.10;99.90;;;;;;5027011;28;20038;-60
2022/11/20 13:05:29;;;;;;;9.03;6.30;;;2.10;99.90;;;;;;5028472;28;20049;-59
2022/11/20 13:07:56;;;;;;;7.28;5.20;;;1.90;99.90;;;;;;5026512;28;20053;-60
2022/11/20 13:10:35;;;;;;;9.02;5.07;;;1.90;99.90;;;;;;5027458;28;20808;-60